createdAt,value
2022-12-28T00:01:16.831Z,0.25
2022-12-28T00:03:43.200Z,0.26
2022-12-28T00:06:10.418Z,0.26
2022-12-28T00:08:37.207Z,0.32
2022-12-28T00:11:24.471Z,0.33
2022-12-28T00:13:56.212Z,0.35
2022-12-28T00:16:28.965Z,0.31
2022-12-28T00:18:57.292Z,0.29
2022-12-28T00:21:24.846Z,0.26
2022-12-28T00:23:52.964Z,0.15
2022-12-28T00:26:20.639Z,0.22
2022-12-28T00:28:48.105Z,0.28
2022-12-28T00:31:15.466Z,0.26
2022-12-28T00:33:42.441Z,0.32
2022-12-28T00:36:11.874Z,0.24
2022-12-28T00:38:38.632Z,0.24
2022-12-28T00:41:05.920Z,0.24
2022-12-28T00:43:33.208Z,0.29
2022-12-28T00:45:59.874Z,0.27
2022-12-28T00:48:26.374Z,0.24
2022-12-28T00:50:52.943Z,0.34
2022-12-28T00:53:19.358Z,0.27
2022-12-28T00:55:45.932Z,0.31
2022-12-28T00:58:12.350Z,0.40
2022-12-28T01:00:38.771Z,0.40
2022-12-28T01:03:05.256Z,0.41
2022-12-28T01:05:32.066Z,0.49
2022-12-28T01:07:58.517Z,0.41
2022-12-28T01:10:24.976Z,0.51
2022-12-28T01:12:51.462Z,0.54
2022-12-28T01:15:17.985Z,0.54
2022-12-28T01:17:44.401Z,0.53
2022-12-28T01:20:11.238Z,0.51
2022-12-28T01:22:37.637Z,0.52
2022-12-28T01:25:04.523Z,0.43
2022-12-28T01:27:31.913Z,0.48
2022-12-28T01:29:58.305Z,0.51
2022-12-28T01:32:24.724Z,0.51
2022-12-28T01:34:51.345Z,0.44
2022-12-28T01:37:17.725Z,0.40
2022-12-28T01:39:44.102Z,0.46
2022-12-28T01:42:17.455Z,0.37
2022-12-28T01:44:46.892Z,0.43
2022-12-28T01:47:28.195Z,0.46
2022-12-28T01:50:03.403Z,0.46
2022-12-28T01:52:37.598Z,0.50
2022-12-28T01:55:11.466Z,0.51
2022-12-28T01:57:48.605Z,0.41
2022-12-28T02:00:16.448Z,0.42
2022-12-28T02:03:07.298Z,0.48
2022-12-28T02:05:38.949Z,0.49
2022-12-28T02:08:13.588Z,0.47
2022-12-28T02:10:45.807Z,0.54
2022-12-28T02:13:15.336Z,0.53
2022-12-28T02:15:42.310Z,0.60
2022-12-28T02:18:10.817Z,0.66
2022-12-28T02:20:54.555Z,0.65
2022-12-28T02:23:47.509Z,0.62
2022-12-28T02:26:33.864Z,0.66
2022-12-28T02:29:18.480Z,0.70
2022-12-28T02:32:15.501Z,0.70
2022-12-28T02:34:47.411Z,0.69
2022-12-28T02:37:20.684Z,0.71
2022-12-28T02:39:56.921Z,0.76
2022-12-28T02:42:25.237Z,0.74
2022-12-28T02:45:10.262Z,0.71
2022-12-28T02:47:56.130Z,0.70
2022-12-28T02:50:30.822Z,0.71
2022-12-28T02:53:21.665Z,0.69
2022-12-28T02:56:40.710Z,0.70
2022-12-28T02:59:13.590Z,0.63
2022-12-28T03:02:02.531Z,0.65
2022-12-28T03:05:47.345Z,0.78
2022-12-28T03:08:26.232Z,0.91
2022-12-28T03:11:04.155Z,0.94
2022-12-28T03:13:52.988Z,0.96
2022-12-28T03:16:28.432Z,0.96
2022-12-28T03:19:26.381Z,0.94
2022-12-28T03:22:14.033Z,0.87
2022-12-28T03:25:02.903Z,0.85
2022-12-28T03:27:49.159Z,0.74
2022-12-28T03:30:38.383Z,0.85
2022-12-28T03:33:06.333Z,0.88
2022-12-28T03:35:45.934Z,0.88
2022-12-28T03:38:27.242Z,0.92
2022-12-28T03:41:08.693Z,0.94
2022-12-28T03:43:42.499Z,0.97
2022-12-28T03:46:21.186Z,1.07
2022-12-28T03:48:51.771Z,1.07
2022-12-28T03:51:22.322Z,1.17
2022-12-28T03:53:48.877Z,1.15
2022-12-28T03:56:18.580Z,1.20
2022-12-28T03:58:46.216Z,1.22
2022-12-28T04:01:12.839Z,1.26
2022-12-28T04:03:40.116Z,1.23
2022-12-28T04:06:07.661Z,1.23
2022-12-28T04:08:34.875Z,1.29
2022-12-28T04:11:01.616Z,1.29
2022-12-28T04:13:31.732Z,1.21
2022-12-28T04:16:04.433Z,1.19
2022-12-28T04:18:32.352Z,1.21
2022-12-28T04:20:59.181Z,1.24
2022-12-28T04:23:25.817Z,1.35
2022-12-28T04:26:04.840Z,1.34
2022-12-28T04:28:32.788Z,1.33
2022-12-28T04:31:01.133Z,1.38
2022-12-28T04:33:28.371Z,1.42
2022-12-28T04:36:03.454Z,1.35
2022-12-28T04:38:29.850Z,1.43
2022-12-28T04:40:56.259Z,1.39
2022-12-28T04:43:22.640Z,1.49
2022-12-28T04:45:57.387Z,1.56
2022-12-28T04:48:24.101Z,1.59
2022-12-28T04:50:50.603Z,1.62
2022-12-28T04:53:16.995Z,1.64
2022-12-28T04:55:43.389Z,1.64
2022-12-28T04:58:09.757Z,1.64
2022-12-28T05:00:36.254Z,1.69
2022-12-28T05:03:02.867Z,1.76
2022-12-28T05:05:31.779Z,1.82
2022-12-28T05:08:01.895Z,1.83
2022-12-28T05:10:29.344Z,1.84
2022-12-28T05:12:56.707Z,1.82
2022-12-28T05:15:23.137Z,1.88
2022-12-28T05:17:49.679Z,1.89
2022-12-28T05:20:17.939Z,1.92
2022-12-28T05:22:44.383Z,1.91
2022-12-28T05:25:10.970Z,1.91
2022-12-28T05:27:37.415Z,1.85
2022-12-28T05:30:04.364Z,1.85
2022-12-28T05:32:30.755Z,1.89
2022-12-28T05:34:57.120Z,1.93
2022-12-28T05:37:23.484Z,1.90
2022-12-28T05:39:49.908Z,1.92
2022-12-28T05:42:16.345Z,1.93
2022-12-28T05:44:42.811Z,1.95
2022-12-28T05:47:09.232Z,1.87
2022-12-28T05:49:35.777Z,1.90
2022-12-28T05:52:02.176Z,2.01
2022-12-28T05:54:28.607Z,2.10
2022-12-28T05:56:55.044Z,2.12
2022-12-28T05:59:21.547Z,2.17
2022-12-28T06:01:48.107Z,2.23
2022-12-28T06:04:17.315Z,2.29
2022-12-28T06:06:44.923Z,2.24
2022-12-28T06:09:11.495Z,2.32
2022-12-28T06:11:37.941Z,2.34
2022-12-28T06:14:05.755Z,2.37
2022-12-28T06:16:34.943Z,2.39
2022-12-28T06:19:05.391Z,2.39
2022-12-28T06:21:33.409Z,2.40
2022-12-28T06:24:00.806Z,2.32
2022-12-28T06:26:29.407Z,2.34
2022-12-28T06:28:56.358Z,2.37
2022-12-28T06:31:29.201Z,2.39
2022-12-28T06:33:57.626Z,2.42
2022-12-28T06:36:27.399Z,2.46
2022-12-28T06:38:56.089Z,2.53
2022-12-28T06:41:23.209Z,2.52
2022-12-28T06:43:50.453Z,2.55
2022-12-28T06:46:19.208Z,2.52
2022-12-28T06:48:46.109Z,2.54
2022-12-28T06:51:19.078Z,2.60
2022-12-28T06:53:47.035Z,2.61
2022-12-28T06:56:16.334Z,2.65
2022-12-28T06:58:44.203Z,2.61
2022-12-28T07:01:17.604Z,2.64
2022-12-28T07:03:45.809Z,2.67
2022-12-28T07:06:15.559Z,2.69
2022-12-28T07:08:42.540Z,2.63
2022-12-28T07:11:11.947Z,2.63
2022-12-28T07:13:38.510Z,2.67
2022-12-28T07:16:07.667Z,2.66
2022-12-28T07:18:34.121Z,2.68
2022-12-28T07:21:06.323Z,2.67
2022-12-28T07:23:34.073Z,2.71
2022-12-28T07:26:12.464Z,2.79
2022-12-28T07:28:40.460Z,2.75
2022-12-28T07:31:08.783Z,2.80
2022-12-28T07:33:36.697Z,2.86
2022-12-28T07:36:05.225Z,2.92
2022-12-28T07:38:31.686Z,2.94
2022-12-28T07:41:15.808Z,3.03
2022-12-28T07:43:42.472Z,3.07
2022-12-28T07:46:13.451Z,3.18
2022-12-28T07:48:40.959Z,3.28
2022-12-28T07:51:15.669Z,3.32
2022-12-28T07:53:44.140Z,3.36
2022-12-28T07:56:11.160Z,3.41
2022-12-28T07:58:38.203Z,3.40
2022-12-28T08:01:08.414Z,3.47
2022-12-28T08:03:36.002Z,3.49
2022-12-28T08:06:07.594Z,3.48
2022-12-28T08:08:53.669Z,3.47
2022-12-28T08:11:26.363Z,3.47
2022-12-28T08:13:54.607Z,3.44
2022-12-28T08:16:23.354Z,3.50
2022-12-28T08:18:50.018Z,3.54
2022-12-28T08:21:19.782Z,3.58
2022-12-28T08:23:46.337Z,3.66
2022-12-28T08:26:19.640Z,3.63
2022-12-28T08:28:47.408Z,3.73
2022-12-28T08:31:16.437Z,3.76
2022-12-28T08:33:43.249Z,3.82
2022-12-28T08:36:10.259Z,3.81
2022-12-28T08:38:38.429Z,3.82
2022-12-28T08:41:07.406Z,3.88
2022-12-28T08:43:34.968Z,3.93
2022-12-28T08:46:05.683Z,3.95
2022-12-28T08:48:32.722Z,3.97
2022-12-28T08:51:07.721Z,3.97
2022-12-28T08:53:35.399Z,4.02
2022-12-28T08:56:10.248Z,4.10
2022-12-28T08:58:37.727Z,4.13
2022-12-28T09:01:17.497Z,4.25
2022-12-28T09:03:46.481Z,4.31
2022-12-28T09:06:15.615Z,4.34
2022-12-28T09:08:56.824Z,4.36
2022-12-28T09:11:29.318Z,4.44
2022-12-28T09:13:55.789Z,4.52
2022-12-28T09:16:25.612Z,4.56
2022-12-28T09:18:57.162Z,4.61
2022-12-28T09:21:26.397Z,4.64
2022-12-28T09:23:52.883Z,4.70
2022-12-28T09:26:21.932Z,4.72
2022-12-28T09:28:53.169Z,4.76
2022-12-28T09:31:21.252Z,4.83
2022-12-28T09:34:34.929Z,4.84
2022-12-28T09:36:49.548Z,4.86
2022-12-28T09:39:18.972Z,4.89
2022-12-28T09:42:02.251Z,4.97
2022-12-28T09:44:34.647Z,5.02
2022-12-28T09:47:24.246Z,5.07
2022-12-28T09:50:18.598Z,5.09
2022-12-28T09:53:16.891Z,5.18
2022-12-28T09:56:10.896Z,5.22
2022-12-28T09:58:44.013Z,5.28
2022-12-28T10:01:16.938Z,5.30
2022-12-28T10:03:45.014Z,5.33
2022-12-28T10:06:22.367Z,5.38
2022-12-28T10:08:52.718Z,5.41
2022-12-28T10:11:23.352Z,5.48
2022-12-28T10:13:56.788Z,5.59
2022-12-28T10:16:25.279Z,5.62
2022-12-28T10:18:52.111Z,5.66
2022-12-28T10:21:21.690Z,5.75
2022-12-28T10:24:29.698Z,5.79
2022-12-28T10:26:44.129Z,5.83
2022-12-28T10:29:18.587Z,5.89
2022-12-28T10:31:57.936Z,5.95
2022-12-28T10:34:25.120Z,6.03
2022-12-28T10:36:54.254Z,6.10
2022-12-28T10:39:28.879Z,6.16
2022-12-28T10:41:58.081Z,6.22
2022-12-28T10:44:40.062Z,6.20
2022-12-28T10:47:18.153Z,6.26
2022-12-28T10:50:10.394Z,6.29
2022-12-28T10:52:37.896Z,6.28
2022-12-28T10:55:28.873Z,6.35
2022-12-28T10:58:29.045Z,6.39
2022-12-28T11:01:03.671Z,6.45
2022-12-28T11:03:37.255Z,6.49
2022-12-28T11:06:13.291Z,6.50
2022-12-28T11:08:41.396Z,6.59
2022-12-28T11:11:18.090Z,6.63
2022-12-28T11:13:52.495Z,6.69
2022-12-28T11:16:18.977Z,6.68
2022-12-28T11:18:45.566Z,6.69
2022-12-28T11:21:19.711Z,6.72
2022-12-28T11:23:48.764Z,6.72
2022-12-28T11:26:15.415Z,6.74
2022-12-28T11:28:45.079Z,6.79
2022-12-28T11:31:22.064Z,6.80
2022-12-28T11:33:52.823Z,6.88
2022-12-28T11:36:20.846Z,7.04
2022-12-28T11:38:49.327Z,7.13
2022-12-28T11:41:30.285Z,7.27
2022-12-28T11:44:09.404Z,7.42
2022-12-28T11:46:37.507Z,7.51
2022-12-28T11:49:22.340Z,7.65
2022-12-28T11:52:17.686Z,7.75
2022-12-28T11:55:23.557Z,7.85
2022-12-28T11:57:50.223Z,7.93
2022-12-28T12:00:21.829Z,7.99
2022-12-28T12:02:53.571Z,8.04
2022-12-28T12:05:38.796Z,8.11
2022-12-28T12:08:11.455Z,8.13
2022-12-28T12:10:39.609Z,8.14
2022-12-28T12:13:27.613Z,8.08
2022-12-28T12:15:59.061Z,7.97
2022-12-28T12:18:28.926Z,7.83
2022-12-28T12:21:15.628Z,7.77
2022-12-28T12:23:52.073Z,7.79
2022-12-28T12:26:33.560Z,7.81
2022-12-28T12:29:05.089Z,7.81
2022-12-28T12:31:39.428Z,7.82
2022-12-28T12:34:24.023Z,7.81
2022-12-28T12:37:29.485Z,7.86
2022-12-28T12:40:01.660Z,7.82
2022-12-28T12:43:04.909Z,7.79
2022-12-28T12:45:53.528Z,7.74
2022-12-28T12:48:57.416Z,7.65
2022-12-28T12:51:35.882Z,7.63
2022-12-28T12:54:39.284Z,7.60
2022-12-28T12:57:18.363Z,7.59
2022-12-28T13:00:03.661Z,7.51
2022-12-28T13:02:46.842Z,7.51
2022-12-28T13:05:18.861Z,7.51
2022-12-28T13:07:45.763Z,7.53
2022-12-28T13:10:44.555Z,7.73
2022-12-28T13:13:22.730Z,7.81
2022-12-28T13:15:49.184Z,7.89
2022-12-28T13:18:44.002Z,8.01
2022-12-28T13:21:12.339Z,8.13
2022-12-28T13:23:44.680Z,8.18
2022-12-28T13:26:13.208Z,8.17
2022-12-28T13:28:50.041Z,8.21
2022-12-28T13:31:22.906Z,8.32
2022-12-28T13:34:15.487Z,8.40
2022-12-28T13:36:57.953Z,8.49
2022-12-28T13:39:30.063Z,8.61
2022-12-28T13:41:59.062Z,8.71
2022-12-28T13:44:34.541Z,8.80
2022-12-28T13:47:12.928Z,8.81
2022-12-28T13:49:56.492Z,8.80
2022-12-28T13:52:33.429Z,8.78
2022-12-28T13:55:06.243Z,8.80
2022-12-28T13:57:46.708Z,8.77
2022-12-28T14:00:17.663Z,8.69
2022-12-28T14:02:44.426Z,8.56
2022-12-28T14:05:19.556Z,8.45
2022-12-28T14:07:47.982Z,8.37
2022-12-28T14:10:15.220Z,8.27
2022-12-28T14:12:42.380Z,8.26
2022-12-28T14:15:10.616Z,8.22
2022-12-28T14:17:38.594Z,8.30
2022-12-28T14:20:05.810Z,8.31
2022-12-28T14:22:37.842Z,8.25
2022-12-28T14:25:16.519Z,8.17
2022-12-28T14:27:46.479Z,8.13
2022-12-28T14:30:42.743Z,8.10
2022-12-28T14:33:24.415Z,8.14
2022-12-28T14:35:59.998Z,8.15
2022-12-28T14:38:34.116Z,8.12
2022-12-28T14:41:02.318Z,8.11
2022-12-28T14:43:34.561Z,8.11
2022-12-28T14:46:34.254Z,8.08
2022-12-28T14:49:30.410Z,8.10
2022-12-28T14:52:08.716Z,8.12
2022-12-28T14:54:46.501Z,8.12
2022-12-28T14:57:21.304Z,8.11
2022-12-28T14:59:56.370Z,8.04
2022-12-28T15:02:35.200Z,8.01
2022-12-28T15:05:02.519Z,8.03
2022-12-28T15:07:31.315Z,8.06
2022-12-28T15:09:57.730Z,8.07
2022-12-28T15:12:24.208Z,8.01
2022-12-28T15:14:50.899Z,7.99
2022-12-28T15:17:18.129Z,7.95
2022-12-28T15:19:45.454Z,7.98
2022-12-28T15:22:12.994Z,8.01
2022-12-28T15:24:41.300Z,7.94
2022-12-28T15:27:07.680Z,7.96
2022-12-28T15:32:20.617Z,7.92
2022-12-28T15:34:46.989Z,7.95
2022-12-28T15:37:13.405Z,7.94
2022-12-28T15:39:39.835Z,7.89
2022-12-28T15:42:06.293Z,7.84
2022-12-28T15:44:32.982Z,7.82
2022-12-28T15:46:59.903Z,7.83
2022-12-28T15:49:27.019Z,7.79
2022-12-28T15:51:53.923Z,7.79
2022-12-28T15:54:20.530Z,7.76
2022-12-28T15:56:54.096Z,7.76
2022-12-28T15:59:21.128Z,7.76
2022-12-28T16:01:49.152Z,7.65
2022-12-28T16:04:16.152Z,7.67
2022-12-28T16:06:45.013Z,7.67
2022-12-28T16:09:12.657Z,7.60
2022-12-28T16:11:39.226Z,7.61
2022-12-28T16:14:07.253Z,7.61
2022-12-28T16:16:37.336Z,7.63
2022-12-28T16:19:04.639Z,7.63
2022-12-28T16:21:31.024Z,7.64
2022-12-28T16:24:00.720Z,7.60
2022-12-28T16:26:28.788Z,7.59
2022-12-28T16:28:55.493Z,7.59
2022-12-28T16:31:33.264Z,7.60
2022-12-28T16:34:02.939Z,7.61
2022-12-28T16:36:29.519Z,7.63
2022-12-28T16:38:57.151Z,7.60
2022-12-28T16:41:24.781Z,7.66
2022-12-28T16:43:51.335Z,7.62
2022-12-28T16:46:18.606Z,7.60
2022-12-28T16:48:45.079Z,7.56
2022-12-28T16:51:12.256Z,7.59
2022-12-28T16:53:38.738Z,7.53
2022-12-28T16:56:06.468Z,7.52
2022-12-28T16:58:33.416Z,7.45
2022-12-28T17:01:06.168Z,7.42
2022-12-28T17:03:32.775Z,7.38
2022-12-28T17:05:59.493Z,7.28
2022-12-28T17:08:26.181Z,7.20
2022-12-28T17:10:52.920Z,7.18
2022-12-28T17:13:19.415Z,7.09
2022-12-28T17:15:45.927Z,7.06
2022-12-28T17:18:16.768Z,7.05
2022-12-28T17:20:45.186Z,7.10
2022-12-28T17:23:12.954Z,6.95
2022-12-28T17:25:39.706Z,6.82
2022-12-28T17:28:06.573Z,6.79
2022-12-28T17:30:33.369Z,6.74
2022-12-28T17:33:00.172Z,6.82
2022-12-28T17:35:26.561Z,6.87
2022-12-28T17:37:53.016Z,6.81
2022-12-28T17:40:19.847Z,6.86
2022-12-28T17:42:46.310Z,6.85
2022-12-28T17:45:12.766Z,6.72
2022-12-28T17:47:39.206Z,6.66
2022-12-28T17:50:06.623Z,6.56
2022-12-28T17:52:33.585Z,6.63
2022-12-28T17:55:00.003Z,6.63
2022-12-28T17:57:26.360Z,6.63
2022-12-28T17:59:52.848Z,6.63
2022-12-28T18:02:19.391Z,6.66
2022-12-28T18:04:46.136Z,6.63
2022-12-28T18:07:12.649Z,6.58
2022-12-28T18:09:39.047Z,6.61
2022-12-28T18:12:05.502Z,6.49
2022-12-28T18:14:31.905Z,6.44
2022-12-28T18:16:58.433Z,6.43
2022-12-28T18:19:25.079Z,6.41
2022-12-28T18:21:51.787Z,6.39
2022-12-28T18:24:20.847Z,6.36
2022-12-28T18:26:47.529Z,6.34
2022-12-28T18:29:13.999Z,6.30
2022-12-28T18:31:40.520Z,6.29
2022-12-28T18:34:07.399Z,6.42
2022-12-28T18:36:34.212Z,6.39
2022-12-28T18:39:02.589Z,6.44
2022-12-28T18:41:33.985Z,6.41
2022-12-28T18:44:02.523Z,6.39
2022-12-28T18:46:29.001Z,6.35
2022-12-28T18:48:56.457Z,6.37
2022-12-28T18:51:22.848Z,6.28
2022-12-28T18:53:51.124Z,6.38
2022-12-28T18:56:21.415Z,6.43
2022-12-28T18:58:53.492Z,6.47
2022-12-28T19:04:10.003Z,6.32
2022-12-28T19:06:37.586Z,6.34
2022-12-28T19:09:06.067Z,6.33
2022-12-28T19:11:32.995Z,6.34
2022-12-28T19:14:02.183Z,6.33
2022-12-28T19:16:31.667Z,6.29
2022-12-28T19:18:59.912Z,6.25
2022-12-28T19:21:30.772Z,6.20
2022-12-28T19:24:03.052Z,6.26
2022-12-28T19:26:31.433Z,6.28
2022-12-28T19:28:58.185Z,6.26
2022-12-28T19:31:25.462Z,6.27
2022-12-28T19:33:51.913Z,6.29
2022-12-28T19:36:19.171Z,6.27
2022-12-28T19:38:45.976Z,6.25
2022-12-28T19:41:15.161Z,6.16
2022-12-28T19:43:42.887Z,6.17
2022-12-28T19:46:20.202Z,6.17
2022-12-28T19:48:47.237Z,6.11
2022-12-28T19:51:14.336Z,6.10
2022-12-28T19:53:41.010Z,6.01
2022-12-28T19:56:17.315Z,6.00
2022-12-28T19:58:45.687Z,6.01
2022-12-28T20:01:18.426Z,5.94
2022-12-28T20:03:46.071Z,6.02
2022-12-28T20:06:17.949Z,5.96
2022-12-28T20:08:49.399Z,6.03
2022-12-28T20:11:17.171Z,5.93
2022-12-28T20:13:48.796Z,5.89
2022-12-28T20:16:15.319Z,5.89
2022-12-28T20:18:48.781Z,5.87
2022-12-28T20:21:19.957Z,5.91
2022-12-28T20:23:50.467Z,5.96
2022-12-28T20:26:18.210Z,5.92
2022-12-28T20:28:45.069Z,5.93
2022-12-28T20:31:14.339Z,5.92
2022-12-28T20:33:43.174Z,5.90
2022-12-28T20:36:15.611Z,5.91
2022-12-28T20:38:42.176Z,5.90
2022-12-28T20:41:35.578Z,5.88
2022-12-28T20:44:05.699Z,5.87
2022-12-28T20:46:32.468Z,5.87
2022-12-28T20:48:59.841Z,5.87
2022-12-28T20:51:27.217Z,5.84
2022-12-28T20:53:54.510Z,5.80
2022-12-28T20:56:22.894Z,5.78
2022-12-28T20:58:49.542Z,5.77
2022-12-28T21:01:16.984Z,5.71
2022-12-28T21:03:44.418Z,5.68
2022-12-28T21:06:11.342Z,5.60
2022-12-28T21:08:37.845Z,5.57
2022-12-28T21:11:04.455Z,5.66
2022-12-28T21:13:30.985Z,5.66
2022-12-28T21:15:58.208Z,5.66
2022-12-28T21:18:24.877Z,5.66
2022-12-28T21:20:55.335Z,5.65
2022-12-28T21:23:22.186Z,5.64
2022-12-28T21:25:48.703Z,5.64
2022-12-28T21:28:15.229Z,5.63
2022-12-28T21:30:41.648Z,5.60
2022-12-28T21:33:08.391Z,5.62
2022-12-28T21:35:35.038Z,5.68
2022-12-28T21:38:04.047Z,5.66
2022-12-28T21:40:30.443Z,5.62
2022-12-28T21:42:56.846Z,5.66
2022-12-28T21:45:23.226Z,5.59
2022-12-28T21:47:49.635Z,5.62
2022-12-28T21:50:19.981Z,5.66
2022-12-28T21:52:46.400Z,5.65
2022-12-28T21:55:31.493Z,5.63
2022-12-28T21:57:59.630Z,5.62
2022-12-28T22:00:45.437Z,5.68
2022-12-28T22:03:30.940Z,5.76
2022-12-28T22:06:03.618Z,5.86
2022-12-28T22:08:49.717Z,5.87
2022-12-28T22:11:35.462Z,5.93
2022-12-28T22:14:02.765Z,5.92
2022-12-28T22:16:34.654Z,6.02
2022-12-28T22:19:03.625Z,6.03
2022-12-28T22:21:31.510Z,6.09
2022-12-28T22:23:58.186Z,6.11
2022-12-28T22:26:24.743Z,6.18
2022-12-28T22:28:51.141Z,6.19
2022-12-28T22:31:17.967Z,6.17
2022-12-28T22:33:44.905Z,6.20
2022-12-28T22:36:13.425Z,6.28
2022-12-28T22:38:39.949Z,6.35
2022-12-28T22:41:06.639Z,6.31
2022-12-28T22:43:33.470Z,6.36
2022-12-28T22:46:11.734Z,6.44
2022-12-28T22:48:38.279Z,6.51
2022-12-28T22:51:10.588Z,6.51
2022-12-28T22:53:37.426Z,6.49
2022-12-28T22:56:06.654Z,6.56
2022-12-28T22:58:34.297Z,6.56
2022-12-28T23:01:07.612Z,6.63
2022-12-28T23:03:36.674Z,6.66
2022-12-28T23:06:04.609Z,6.67
2022-12-28T23:08:31.406Z,6.67
2022-12-28T23:11:00.749Z,6.73
2022-12-28T23:13:28.160Z,6.75
2022-12-28T23:15:59.874Z,6.76
2022-12-28T23:18:44.917Z,6.77
2022-12-28T23:21:38.493Z,6.80
2022-12-28T23:24:28.885Z,6.84
2022-12-28T23:27:14.128Z,6.86
2022-12-28T23:29:40.598Z,6.91
2022-12-28T23:32:07.412Z,6.91
2022-12-28T23:34:33.795Z,6.90
2022-12-28T23:37:00.236Z,6.92
2022-12-28T23:39:26.755Z,6.97
2022-12-28T23:41:53.512Z,6.96
2022-12-28T23:44:23.200Z,6.92
2022-12-28T23:46:55.194Z,6.98
2022-12-28T23:49:24.863Z,6.99
2022-12-28T23:51:51.358Z,6.96
2022-12-28T23:54:19.280Z,6.97
2022-12-28T23:56:46.473Z,6.99
2022-12-28T23:59:12.905Z,7.03
